createdAt,value
2022-11-02T00:44:42.966Z,91.74
2022-11-02T00:47:14.594Z,91.31
2022-11-02T00:49:42.775Z,90.93
2022-11-02T00:52:11.196Z,91.01
2022-11-02T00:54:40.127Z,91.07
2022-11-02T00:57:08.450Z,90.67
2022-11-02T00:59:36.929Z,91.01
2022-11-02T01:02:05.795Z,91.20
2022-11-02T01:04:34.826Z,91.08
2022-11-02T01:07:03.821Z,90.91
2022-11-02T01:09:31.874Z,91.03
2022-11-02T01:11:59.930Z,90.82
2022-11-02T01:14:28.085Z,90.25
2022-11-02T01:16:58.038Z,90.41
2022-11-02T01:19:26.403Z,90.12
2022-11-02T01:21:54.565Z,90.12
2022-11-02T01:24:22.709Z,89.85
2022-11-02T01:26:52.019Z,91.66
2022-11-02T01:29:20.377Z,91.53
2022-11-02T01:31:48.822Z,93.63
2022-11-02T01:34:18.564Z,94.01
2022-11-02T01:43:24.191Z,93.82
2022-11-02T01:45:56.172Z,93.69
2022-11-02T01:48:58.490Z,93.18
2022-11-02T01:51:33.373Z,92.49
2022-11-02T01:54:18.867Z,92.29
2022-11-02T01:56:52.291Z,91.97
2022-11-02T01:59:27.426Z,91.66
2022-11-02T02:01:55.586Z,91.30
2022-11-02T02:04:23.854Z,91.61
2022-11-02T02:06:53.084Z,90.88
2022-11-02T02:09:23.458Z,90.67
2022-11-02T02:11:51.506Z,90.74
2022-11-02T02:14:21.036Z,91.35
2022-11-02T02:19:55.810Z,92.52
2022-11-02T02:22:37.258Z,92.57
2022-11-02T02:25:34.262Z,92.70
2022-11-02T02:28:08.352Z,92.74
2022-11-02T02:30:46.753Z,93.17
2022-11-02T02:33:24.504Z,93.09
2022-11-02T02:35:59.024Z,92.42
2022-11-02T02:38:43.000Z,92.45
2022-11-02T02:41:19.394Z,92.30
2022-11-02T02:43:52.250Z,92.62
2022-11-02T02:46:26.182Z,92.70
2022-11-02T02:48:57.997Z,92.54
2022-11-02T02:51:32.255Z,91.80
2022-11-02T02:54:19.289Z,91.95
2022-11-02T02:56:56.384Z,92.01
2022-11-02T02:59:35.410Z,92.80
2022-11-02T03:02:07.631Z,92.23
2022-11-02T03:04:35.669Z,92.17
2022-11-02T03:07:03.866Z,92.16
2022-11-02T03:09:41.365Z,92.24
2022-11-02T03:12:25.911Z,92.00
2022-11-02T03:15:19.573Z,91.52
2022-11-02T03:18:07.300Z,91.75
2022-11-02T03:21:03.057Z,92.02
2022-11-02T03:23:31.459Z,92.52
2022-11-02T03:26:41.524Z,92.48
2022-11-02T03:29:18.713Z,93.53
2022-11-02T03:31:58.613Z,94.68
2022-11-02T03:34:56.281Z,94.89
2022-11-02T03:37:45.642Z,94.80
2022-11-02T03:40:24.900Z,94.88
2022-11-02T03:43:05.070Z,94.74
2022-11-02T03:45:39.940Z,94.99
2022-11-02T03:48:12.203Z,94.51
2022-11-02T03:50:48.142Z,95.13
2022-11-02T03:53:28.216Z,94.77
2022-11-02T03:56:04.189Z,95.09
2022-11-02T03:58:33.277Z,95.18
2022-11-02T04:01:05.120Z,95.19
2022-11-02T04:03:36.628Z,94.67
2022-11-02T04:06:04.649Z,94.93
2022-11-02T04:08:40.481Z,94.88
2022-11-02T04:11:29.172Z,94.75
2022-11-02T04:14:19.753Z,93.74
2022-11-02T04:16:47.937Z,93.30
2022-11-02T04:19:29.971Z,93.14
2022-11-02T04:22:21.854Z,93.15
2022-11-02T04:25:11.550Z,93.28
2022-11-02T04:27:39.939Z,93.15
2022-11-02T04:30:09.355Z,93.10
2022-11-02T04:32:57.351Z,93.43
2022-11-02T04:35:26.230Z,93.11
2022-11-02T04:38:15.836Z,92.79
2022-11-02T04:40:44.488Z,92.64
2022-11-02T04:43:12.745Z,92.75
2022-11-02T04:45:46.147Z,93.62
2022-11-02T04:48:15.556Z,93.63
2022-11-02T04:50:44.183Z,93.70
2022-11-02T04:53:12.296Z,93.19
2022-11-02T04:55:40.404Z,93.41
2022-11-02T04:58:08.718Z,93.46
2022-11-02T05:00:36.870Z,93.80
2022-11-02T05:03:08.226Z,93.22
2022-11-02T05:05:39.854Z,92.76
2022-11-02T05:08:08.524Z,92.60
2022-11-02T05:10:37.642Z,92.04
2022-11-02T05:13:06.264Z,92.30
2022-11-02T05:15:35.532Z,91.45
2022-11-02T05:18:05.064Z,91.74
2022-11-02T05:20:34.896Z,91.74
2022-11-02T05:23:03.196Z,91.87
2022-11-02T05:25:32.877Z,92.01
2022-11-02T05:28:01.001Z,91.68
2022-11-02T05:30:29.319Z,91.65
2022-11-02T05:32:57.727Z,91.71
2022-11-02T05:35:26.152Z,91.77
2022-11-02T05:37:55.740Z,91.55
2022-11-02T05:40:24.300Z,91.68
2022-11-02T05:42:52.184Z,92.04
2022-11-02T05:45:24.486Z,91.95
2022-11-02T05:47:52.688Z,92.21
2022-11-02T05:50:21.350Z,91.97
2022-11-02T05:52:49.377Z,92.18
2022-11-02T05:55:17.216Z,91.75
2022-11-02T05:57:51.626Z,91.20
2022-11-02T06:00:21.262Z,90.59
2022-11-02T06:02:58.205Z,90.59
2022-11-02T06:05:26.842Z,90.75
2022-11-02T06:07:58.699Z,90.70
2022-11-02T06:10:49.405Z,90.31
2022-11-02T06:13:18.782Z,90.41
2022-11-02T06:15:48.660Z,89.98
2022-11-02T06:18:16.676Z,89.39
2022-11-02T06:20:52.143Z,89.70
2022-11-02T06:23:20.050Z,89.67
2022-11-02T06:25:56.041Z,89.70
2022-11-02T06:28:24.115Z,89.69
2022-11-02T06:30:52.661Z,89.43
2022-11-02T06:33:21.159Z,89.63
2022-11-02T06:35:54.013Z,89.80
2022-11-02T06:38:22.511Z,90.02
2022-11-02T06:41:08.677Z,88.61
2022-11-02T06:43:38.625Z,88.52
2022-11-02T06:46:10.017Z,88.51
2022-11-02T06:48:41.880Z,88.21
2022-11-02T06:51:09.670Z,87.19
2022-11-02T06:53:40.111Z,86.94
2022-11-02T06:56:12.494Z,87.06
2022-11-02T06:58:40.479Z,87.51
2022-11-02T07:01:09.232Z,87.71
2022-11-02T07:03:37.348Z,88.04
2022-11-02T07:06:09.654Z,87.29
2022-11-02T07:08:40.769Z,87.39
2022-11-02T07:11:08.672Z,87.84
2022-11-02T07:13:40.578Z,88.29
2022-11-02T07:16:11.058Z,88.07
2022-11-02T07:18:39.064Z,87.43
2022-11-02T07:21:07.504Z,87.30
2022-11-02T07:23:35.361Z,86.88
2022-11-02T07:26:03.871Z,86.03
2022-11-02T07:28:31.785Z,85.54
2022-11-02T07:30:59.658Z,85.30
2022-11-02T07:33:27.505Z,84.93
2022-11-02T07:35:55.427Z,85.63
2022-11-02T07:38:25.916Z,85.73
2022-11-02T07:40:53.959Z,85.88
2022-11-02T07:43:21.860Z,85.55
2022-11-02T07:46:03.985Z,85.57
2022-11-02T07:48:32.096Z,85.46
2022-11-02T07:51:00.073Z,84.61
2022-11-02T07:53:28.100Z,84.91
2022-11-02T07:55:55.965Z,85.23
2022-11-02T07:58:23.980Z,84.73
2022-11-02T08:07:29.016Z,84.70
2022-11-02T08:09:57.005Z,86.18
2022-11-02T08:12:25.064Z,87.30
2022-11-02T08:14:53.049Z,88.27
2022-11-02T08:17:21.834Z,88.02
2022-11-02T08:19:50.143Z,88.73
2022-11-02T08:22:18.212Z,89.27
2022-11-02T08:24:46.093Z,89.36
2022-11-02T08:27:14.103Z,89.67
2022-11-02T08:29:42.192Z,89.39
2022-11-02T08:32:10.122Z,89.04
2022-11-02T08:34:38.094Z,87.77
2022-11-02T08:37:08.191Z,87.50
2022-11-02T08:39:36.139Z,87.51
2022-11-02T08:42:04.246Z,86.80
2022-11-02T08:44:32.202Z,85.89
2022-11-02T08:47:02.109Z,86.17
2022-11-02T08:49:32.277Z,86.21
2022-11-02T08:52:00.419Z,86.27
2022-11-02T08:54:28.324Z,86.08
2022-11-02T08:56:56.337Z,85.40
2022-11-02T08:59:24.311Z,85.18
2022-11-02T09:01:52.423Z,85.06
2022-11-02T09:04:20.508Z,83.94
2022-11-02T09:06:53.413Z,83.78
2022-11-02T09:09:21.408Z,83.24
2022-11-02T09:11:52.384Z,82.99
2022-11-02T09:14:20.436Z,83.49
2022-11-02T09:16:48.387Z,83.57
2022-11-02T09:19:16.305Z,83.76
2022-11-02T09:21:44.310Z,83.32
2022-11-02T09:24:12.806Z,83.36
2022-11-02T09:26:40.955Z,82.78
2022-11-02T09:29:08.872Z,81.90
2022-11-02T09:31:37.027Z,81.27
2022-11-02T09:34:05.024Z,80.54
2022-11-02T09:36:34.102Z,80.84
2022-11-02T09:39:02.180Z,81.54
2022-11-02T09:41:47.637Z,80.87
2022-11-02T09:44:28.806Z,80.62
2022-11-02T09:47:39.662Z,80.36
2022-11-02T09:49:46.012Z,80.66
2022-11-02T09:52:24.371Z,80.21
2022-11-02T09:54:54.847Z,79.53
2022-11-02T09:57:33.099Z,79.77
2022-11-02T10:00:01.648Z,79.69
2022-11-02T10:03:07.470Z,78.97
2022-11-02T10:05:41.545Z,79.66
2022-11-02T10:08:27.863Z,79.02
2022-11-02T10:11:08.284Z,79.15
2022-11-02T10:14:00.853Z,79.21
2022-11-02T10:16:38.685Z,79.20
2022-11-02T10:19:14.029Z,78.33
2022-11-02T10:21:46.771Z,78.36
2022-11-02T10:24:39.881Z,78.89
2022-11-02T10:27:17.093Z,79.27
2022-11-02T10:29:54.324Z,79.42
2022-11-02T10:32:22.594Z,78.36
2022-11-02T10:34:59.117Z,78.38
2022-11-02T10:37:47.213Z,78.73
2022-11-02T10:40:33.934Z,79.23
2022-11-02T10:43:23.864Z,79.51
2022-11-02T10:45:54.910Z,79.89
2022-11-02T10:48:53.423Z,79.42
2022-11-02T10:51:22.100Z,79.58
2022-11-02T10:53:52.044Z,79.49
2022-11-02T10:56:25.739Z,77.12
2022-11-02T10:59:00.961Z,76.47
2022-11-02T11:01:31.225Z,76.41
2022-11-02T11:04:05.350Z,76.51
2022-11-02T11:06:39.170Z,76.47
2022-11-02T11:09:17.405Z,76.48
2022-11-02T11:11:54.917Z,76.21
2022-11-02T11:20:35.715Z,75.50
2022-11-02T11:23:10.244Z,75.40
2022-11-02T11:25:40.735Z,74.67
2022-11-02T11:28:22.693Z,75.29
2022-11-02T11:31:18.300Z,75.09
2022-11-02T11:33:51.572Z,75.14
2022-11-02T11:36:23.344Z,74.83
2022-11-02T11:38:54.421Z,74.85
2022-11-02T11:41:23.445Z,75.05
2022-11-02T11:43:54.055Z,74.75
2022-11-02T11:46:22.569Z,75.04
2022-11-02T11:48:57.419Z,75.26
2022-11-02T11:51:38.704Z,74.67
2022-11-02T11:54:29.330Z,75.11
2022-11-02T11:57:22.436Z,75.38
2022-11-02T11:59:58.806Z,74.47
2022-11-02T12:02:28.507Z,74.18
2022-11-02T12:05:15.817Z,74.47
2022-11-02T12:07:58.945Z,74.34
